Time;durP1;ratioP1;P1;durP2;ratioP2;P2;SDS_P1;SDS_P2;PMS_P1;PMS_P2;Temp;Humidity;BMP_temperature;BMP_pressure;BME280_temperature;BME280_humidity;BME280_pressure;Samples;Min_cycle;Max_cycle;Signal;HPM_P1;HPM_P2
2022/01/20 00:00:53;;;;;;;6.37;2.00;;;;;;;6.27;66.79;101446.25;4925635;28;96724;-89
2022/01/20 00:03:22;;;;;;;8.27;1.50;;;;;;;6.20;66.71;101453.94;4921479;28;97404;-88
2022/01/20 00:27:48;;;;;;;9.23;1.53;;;;;;;5.93;66.67;101447.00;4910892;28;97413;-88
2022/01/20 00:32:59;;;;;;;6.83;1.27;;;;;;;5.89;66.44;101440.91;4913326;28;96796;-88
2022/01/20 00:35:31;;;;;;;11.20;1.40;;;;;;;5.89;66.32;101457.28;4914315;28;96932;-89
2022/01/20 00:37:58;;;;;;;5.73;1.47;;;;;;;5.86;66.40;101427.34;4905677;28;96820;-89
2022/01/20 00:40:26;;;;;;;7.20;1.63;;;;;;;5.85;66.42;101436.78;4910118;28;97681;-89
2022/01/20 00:42:53;;;;;;;8.17;1.63;;;;;;;5.86;66.56;101458.16;4906695;28;96657;-87
2022/01/20 00:45:21;;;;;;;6.13;1.20;;;;;;;5.87;66.32;101446.06;4911465;28;97534;-88
2022/01/20 00:47:49;;;;;;;7.27;1.97;;;;;;;5.87;66.30;101448.00;4932620;28;96775;-87
2022/01/20 00:50:16;;;;;;;10.33;1.50;;;;;;;5.90;66.28;101452.56;4921200;28;97176;-86
2022/01/20 00:52:44;;;;;;;7.97;1.47;;;;;;;5.88;66.35;101444.06;4921523;28;96698;-89
2022/01/20 00:55:12;;;;;;;9.83;1.97;;;;;;;5.80;65.91;101457.16;4927184;28;98055;-87
2022/01/20 00:57:39;;;;;;;6.30;1.37;;;;;;;5.84;66.39;101436.00;4925684;28;97001;-87
2022/01/20 01:00:09;;;;;;;5.60;1.10;;;;;;;5.84;66.22;101433.25;4909756;28;102410;-86
2022/01/20 01:02:36;;;;;;;10.30;2.03;;;;;;;5.82;66.33;101446.56;4939730;28;100616;-88
2022/01/20 01:05:06;;;;;;;5.93;1.40;;;;;;;5.80;66.10;101434.56;4937219;28;96888;-85
2022/01/20 01:10:08;;;;;;;8.97;2.00;;;;;;;5.80;66.50;101413.47;4922253;28;96626;-86
2022/01/20 01:12:47;;;;;;;10.67;2.13;;;;;;;5.80;66.34;101431.81;4942161;28;97200;-86
2022/01/20 01:15:21;;;;;;;14.60;2.93;;;;;;;5.80;66.44;101427.13;4927660;28;97025;-87
2022/01/20 01:21:08;;;;;;;9.83;1.90;;;;;;;5.84;66.71;101433.25;4925012;28;101127;-88
2022/01/20 01:23:22;;;;;;;10.03;1.70;;;;;;;5.92;66.60;101434.53;4923607;28;97721;-86
2022/01/20 01:25:50;;;;;;;9.17;1.80;;;;;;;5.98;66.57;101434.78;4935156;28;96614;-88
2022/01/20 01:28:20;;;;;;;11.30;1.90;;;;;;;6.00;66.34;101441.31;4922920;28;96976;-86
2022/01/20 01:33:34;;;;;;;18.43;1.83;;;;;;;6.00;66.90;101437.81;4926071;28;97054;-86
2022/01/20 01:36:04;;;;;;;6.13;1.80;;;;;;;6.00;66.70;101424.94;4922485;28;96667;-87
2022/01/20 01:38:38;;;;;;;13.37;2.13;;;;;;;6.00;66.32;101459.66;4924773;28;97034;-89
2022/01/20 01:41:11;;;;;;;10.53;1.80;;;;;;;6.00;66.62;101427.66;4926839;28;97944;-88
2022/01/20 01:43:41;;;;;;;8.43;2.20;;;;;;;6.01;66.59;101426.44;4924462;28;97386;-87
2022/01/20 01:46:09;;;;;;;15.30;1.80;;;;;;;6.00;66.47;101438.59;4926224;28;96955;-87
2022/01/20 01:48:37;;;;;;;10.53;2.20;;;;;;;6.01;66.63;101447.53;4922882;28;97337;-87
2022/01/20 01:51:05;;;;;;;10.87;1.70;;;;;;;6.02;66.54;101427.22;4927556;28;97121;-88
2022/01/20 01:53:33;;;;;;;10.13;1.83;;;;;;;6.02;66.73;101433.44;4924395;28;98587;-86
2022/01/20 01:56:02;;;;;;;6.23;1.60;;;;;;;6.01;66.83;101429.19;4924698;28;96758;-87
2022/01/20 01:58:30;;;;;;;15.83;2.00;;;;;;;6.04;66.83;101425.56;4944699;28;96758;-87
2022/01/20 02:00:58;;;;;;;9.20;1.50;;;;;;;6.05;66.80;101424.34;4942195;28;97916;-88
2022/01/20 02:03:26;;;;;;;7.27;1.80;;;;;;;6.07;66.75;101419.22;4922132;28;97536;-90
2022/01/20 02:08:51;;;;;;;7.30;1.60;;;;;;;6.12;66.57;101430.78;4929707;28;96955;-87
2022/01/20 02:19:34;;;;;;;5.83;1.90;;;;;;;6.22;66.77;101432.41;4912549;28;97282;-88
2022/01/20 02:22:02;;;;;;;10.83;1.70;;;;;;;6.27;66.93;101420.91;4923191;28;98803;-86
2022/01/20 02:24:31;;;;;;;11.97;1.90;;;;;;;6.30;66.58;101396.19;4936331;28;98351;-87
2022/01/20 02:26:59;;;;;;;9.47;1.90;;;;;;;6.32;66.83;101385.56;4904018;28;97342;-88
2022/01/20 02:29:27;;;;;;;14.50;1.93;;;;;;;6.32;66.34;101387.53;4907153;28;98877;-87
2022/01/20 02:31:55;;;;;;;11.33;2.43;;;;;;;6.32;66.78;101406.66;4918304;28;101085;-85
2022/01/20 02:34:24;;;;;;;8.67;1.47;;;;;;;6.31;66.64;101383.28;4905518;28;97781;-87
2022/01/20 02:36:51;;;;;;;17.33;2.13;;;;;;;6.35;66.92;101389.38;4903954;28;96740;-89
2022/01/20 02:40:00;;;;;;;5.37;1.50;;;;;;;6.34;66.78;101396.81;4915061;28;97098;-91
2022/01/20 02:45:02;;;;;;;5.30;1.53;;;;;;;6.33;66.69;101384.38;4904379;28;99996;-88
2022/01/20 02:47:33;;;;;;;7.70;1.90;;;;;;;6.41;66.59;101401.25;4907690;28;97190;-91
2022/01/20 02:50:01;;;;;;;6.10;1.50;;;;;;;6.43;66.71;101396.88;4907428;28;97163;-89
2022/01/20 02:52:29;;;;;;;10.87;2.07;;;;;;;6.45;66.80;101396.44;4908074;28;97986;-91
2022/01/20 02:54:57;;;;;;;9.37;1.50;;;;;;;6.44;67.02;101387.50;4913360;28;100141;-88
2022/01/20 02:57:24;;;;;;;13.13;2.07;;;;;;;6.44;66.92;101378.53;4913301;28;96968;-89
2022/01/20 02:59:51;;;;;;;13.03;2.00;;;;;;;6.42;67.31;101389.13;4916327;28;96523;-90
2022/01/20 03:02:18;;;;;;;3.77;0.90;;;;;;;6.35;67.20;101376.50;4908864;28;99411;-88
2022/01/20 03:04:44;;;;;;;5.90;1.10;;;;;;;6.32;67.27;101401.19;4918661;28;97778;-88
2022/01/20 03:07:11;;;;;;;8.23;1.77;;;;;;;6.35;67.37;101392.88;4909502;28;96830;-88
2022/01/20 03:09:38;;;;;;;12.13;1.70;;;;;;;6.36;67.35;101390.88;4924268;28;96884;-88
2022/01/20 03:12:05;;;;;;;9.37;1.77;;;;;;;6.35;67.20;101397.59;4938167;28;99782;-88
2022/01/20 03:14:32;;;;;;;9.33;1.70;;;;;;;6.36;67.24;101410.03;4934659;28;101573;-88
2022/01/20 03:16:58;;;;;;;10.73;1.93;;;;;;;6.37;67.18;101398.66;4936267;28;96422;-88
2022/01/20 03:19:25;;;;;;;6.13;1.10;;;;;;;6.34;67.44;101399.53;4943067;28;96935;-87
2022/01/20 03:21:51;;;;;;;8.43;1.80;;;;;;;6.34;67.26;101421.41;4937515;28;96697;-92
2022/01/20 03:24:18;;;;;;;5.00;1.40;;;;;;;6.33;67.17;101391.81;4935955;28;96702;-91
2022/01/20 03:26:44;;;;;;;3.90;1.30;;;;;;;6.33;67.37;101405.47;4938860;28;96695;-90
2022/01/20 03:29:11;;;;;;;4.47;1.77;;;;;;;6.35;67.37;101397.59;4945889;28;97289;-89
2022/01/20 03:31:38;;;;;;;6.27;1.63;;;;;;;6.40;67.42;101402.50;4928906;28;97128;-91
2022/01/20 03:34:06;;;;;;;6.93;1.23;;;;;;;6.37;67.75;101401.41;4926813;28;96953;-92
2022/01/20 03:36:34;;;;;;;5.60;1.00;;;;;;;6.36;67.74;101393.63;4940997;28;96889;-90
2022/01/20 03:39:01;;;;;;;5.80;1.10;;;;;;;6.34;67.52;101402.28;4944121;28;97285;-90
2022/01/20 03:41:28;;;;;;;3.83;1.40;;;;;;;6.31;67.39;101444.16;4940350;28;98691;-92
2022/01/20 03:43:55;;;;;;;7.47;1.10;;;;;;;6.28;67.56;101441.53;4925319;28;97724;-91
2022/01/20 03:46:22;;;;;;;4.77;1.07;;;;;;;6.26;67.86;101428.34;4924317;28;96895;-89
2022/01/20 03:48:54;;;;;;;3.13;0.87;;;;;;;6.26;67.35;101447.47;4924072;28;97340;-89
2022/01/20 03:51:24;;;;;;;4.10;0.87;;;;;;;6.22;67.74;101435.91;4923848;28;98704;-88
2022/01/20 03:53:53;;;;;;;2.93;0.57;;;;;;;6.23;67.72;101431.19;4942688;28;99665;-88
2022/01/20 03:56:21;;;;;;;2.80;0.77;;;;;;;6.22;67.62;101429.66;4929751;28;97073;-90
2022/01/20 03:58:48;;;;;;;2.60;1.10;;;;;;;6.19;67.44;101442.22;4927510;28;97387;-89
2022/01/20 04:01:17;;;;;;;10.33;0.93;;;;;;;6.15;67.04;101435.38;4943427;28;99711;-91
2022/01/20 04:03:44;;;;;;;3.77;0.60;;;;;;;6.16;67.40;101425.97;4924360;28;102782;-90
2022/01/20 04:06:11;;;;;;;5.13;0.77;;;;;;;6.15;67.58;101471.66;4925516;28;96933;-88
2022/01/20 04:08:42;;;;;;;2.87;0.97;;;;;;;6.15;67.25;101458.00;4925818;28;96884;-90
2022/01/20 04:11:11;;;;;;;3.70;1.10;;;;;;;6.14;67.50;101444.78;4942169;28;99588;-89
2022/01/20 04:13:38;;;;;;;7.10;0.73;;;;;;;6.13;67.49;101470.56;4924692;28;96896;-90
2022/01/20 04:16:37;;;;;;;8.90;1.57;;;;;;;6.17;67.70;101465.72;4940760;28;97371;-89
2022/01/20 04:19:08;;;;;;;3.03;0.80;;;;;;;6.12;67.41;101456.13;4941701;28;97123;-88
2022/01/20 04:21:36;;;;;;;7.00;1.10;;;;;;;6.05;67.46;101484.44;4944884;28;99637;-90
2022/01/20 04:24:03;;;;;;;2.27;0.90;;;;;;;6.00;67.64;101486.97;4939766;28;103702;-87
2022/01/20 04:26:29;;;;;;;2.87;0.73;;;;;;;5.99;67.51;101482.72;4936396;28;97158;-89
2022/01/20 04:28:58;;;;;;;3.13;0.93;;;;;;;5.91;67.69;101470.50;4930431;28;97064;-89
2022/01/20 04:31:26;;;;;;;2.60;0.70;;;;;;;5.90;67.45;101472.47;4918308;28;97231;-88
2022/01/20 04:33:52;;;;;;;1.20;0.67;;;;;;;5.90;67.45;101479.88;4935438;28;98452;-88
2022/01/20 04:36:18;;;;;;;1.90;0.90;;;;;;;5.95;67.42;101493.00;4928038;28;96709;-89
2022/01/20 04:38:45;;;;;;;2.70;0.70;;;;;;;5.84;67.22;101476.94;4944330;28;97345;-90
2022/01/20 04:41:10;;;;;;;6.83;1.00;;;;;;;5.86;67.34;101498.34;4923260;28;98773;-88
2022/01/20 04:43:36;;;;;;;1.03;0.80;;;;;;;5.84;67.52;101509.72;4926085;28;99462;-88
2022/01/20 04:48:50;;;;;;;3.87;1.00;;;;;;;5.80;67.37;101498.13;4926325;28;96666;-88
2022/01/20 04:57:06;;;;;;;7.03;1.20;;;;;;;5.64;67.57;101519.28;4922125;28;98043;-89
2022/01/20 04:59:32;;;;;;;2.87;0.63;;;;;;;5.63;67.45;101534.94;4943220;28;98422;-90
2022/01/20 05:01:58;;;;;;;5.00;1.20;;;;;;;5.59;67.23;101536.97;4925642;28;98771;-91
2022/01/20 05:04:25;;;;;;;10.33;1.00;;;;;;;5.56;67.48;101543.31;4926617;28;97773;-88
2022/01/20 05:06:57;;;;;;;3.23;0.93;;;;;;;5.52;67.48;101531.75;4940990;28;97148;-91
2022/01/20 05:09:23;;;;;;;8.23;1.27;;;;;;;5.51;67.44;101545.81;4931631;28;96891;-89
2022/01/20 05:11:58;;;;;;;5.97;1.20;;;;;;;5.52;67.37;101539.19;4945034;28;100861;-89
2022/01/20 05:14:25;;;;;;;7.87;0.90;;;;;;;5.47;67.27;101547.88;4928258;28;97721;-91
2022/01/20 05:16:55;;;;;;;9.67;2.27;;;;;;;5.50;67.54;101550.53;4929905;28;96798;-89
2022/01/20 05:19:22;;;;;;;4.50;1.20;;;;;;;5.43;67.55;101550.75;4924521;28;96826;-91
2022/01/20 05:21:55;;;;;;;6.13;1.70;;;;;;;5.36;67.44;101561.84;4909840;28;98720;-87
2022/01/20 05:24:22;;;;;;;9.60;1.50;;;;;;;5.27;66.99;101554.31;4874271;28;96758;-90
2022/01/20 05:26:53;;;;;;;4.90;1.03;;;;;;;5.16;66.88;101561.25;4909598;28;96967;-90
2022/01/20 05:29:20;;;;;;;6.07;1.50;;;;;;;5.04;66.84;101562.00;4937009;28;97055;-90
2022/01/20 05:31:46;;;;;;;4.63;0.90;;;;;;;4.97;67.33;101570.38;4922858;28;96975;-90
2022/01/20 05:34:12;;;;;;;9.03;1.43;;;;;;;4.97;67.18;101570.38;4923660;28;97233;-91
2022/01/20 05:36:38;;;;;;;3.37;1.50;;;;;;;4.86;66.89;101575.34;4924138;28;96860;-90
2022/01/20 05:39:04;;;;;;;3.47;0.93;;;;;;;4.88;67.37;101600.97;4921572;28;96869;-91
2022/01/20 05:41:31;;;;;;;3.23;1.60;;;;;;;4.82;67.11;101588.28;4920639;28;97909;-90
2022/01/20 05:43:58;;;;;;;5.00;1.03;;;;;;;4.78;67.50;101584.91;4934840;28;99660;-92
2022/01/20 05:46:33;;;;;;;6.90;1.67;;;;;;;4.79;67.08;101608.22;4926884;28;98700;-91
2022/01/20 05:49:08;;;;;;;2.70;0.83;;;;;;;4.72;67.14;101608.44;4923033;28;96739;-90
2022/01/20 05:51:39;;;;;;;3.10;1.40;;;;;;;4.66;67.00;101599.22;4926517;28;98108;-92
2022/01/20 05:54:07;;;;;;;5.03;1.97;;;;;;;4.64;66.97;101637.81;4938980;28;96832;-92
2022/01/20 05:56:34;;;;;;;2.83;1.30;;;;;;;4.61;66.90;101618.84;4920883;28;97178;-91
2022/01/20 05:59:02;;;;;;;5.90;0.77;;;;;;;4.59;67.08;101651.94;4942104;28;97325;-91
2022/01/20 06:01:28;;;;;;;3.70;1.10;;;;;;;4.65;67.12;101635.84;4942036;28;96949;-90
2022/01/20 06:03:55;;;;;;;10.47;1.67;;;;;;;4.64;67.01;101643.25;4940164;28;97594;-92
2022/01/20 06:06:22;;;;;;;4.93;0.93;;;;;;;4.67;67.02;101636.97;4938703;28;97115;-90
2022/01/20 06:08:50;;;;;;;4.70;0.97;;;;;;;4.68;66.89;101656.78;4942502;28;96948;-90
2022/01/20 06:11:17;;;;;;;1.83;0.87;;;;;;;4.67;67.06;101638.91;4931323;28;100155;-92
2022/01/20 06:13:44;;;;;;;8.23;1.97;;;;;;;4.67;66.98;101636.97;4940651;28;98516;-91
2022/01/20 06:16:10;;;;;;;6.53;1.70;;;;;;;4.69;66.84;101631.06;4940188;28;96959;-91
2022/01/20 06:18:37;;;;;;;8.53;2.10;;;;;;;4.70;66.82;101629.88;4926085;28;98006;-91
2022/01/20 06:21:04;;;;;;;2.80;2.13;;;;;;;4.65;66.80;101627.69;4927114;28;98659;-93
2022/01/20 06:23:30;;;;;;;7.03;1.73;;;;;;;4.59;66.84;101640.28;4943038;28;98573;-92
2022/01/20 06:25:57;;;;;;;6.67;1.50;;;;;;;4.57;66.79;101666.00;4938534;28;96504;-91
2022/01/20 06:28:23;;;;;;;7.03;2.57;;;;;;;4.56;66.93;101642.66;4947250;28;97005;-91
2022/01/20 06:30:49;;;;;;;8.73;2.83;;;;;;;4.58;66.66;101647.69;4929238;28;98697;-92
2022/01/20 06:33:15;;;;;;;7.13;2.70;;;;;;;4.62;67.06;101663.94;4946615;28;96567;-92
2022/01/20 06:35:41;;;;;;;7.83;2.63;;;;;;;4.62;66.67;101644.88;4922040;28;96690;-90
2022/01/20 06:38:07;;;;;;;6.90;2.63;;;;;;;4.63;66.38;101679.13;4944963;28;96802;-91
2022/01/20 06:40:34;;;;;;;10.90;3.10;;;;;;;4.64;66.75;101677.91;4938719;28;96820;-92
2022/01/20 06:43:02;;;;;;;6.13;3.00;;;;;;;4.64;66.64;101675.19;4927346;28;97402;-91
2022/01/20 06:45:28;;;;;;;6.00;2.37;;;;;;;4.63;66.48;101701.66;4940686;28;96795;-91
2022/01/20 06:47:55;;;;;;;6.90;2.73;;;;;;;4.64;66.59;101677.91;4933877;28;96824;-92
2022/01/20 06:50:23;;;;;;;7.37;1.80;;;;;;;4.62;66.49;101691.19;4921668;28;99485;-92
2022/01/20 06:52:50;;;;;;;3.37;1.40;;;;;;;4.54;66.59;101699.53;4944084;28;97734;-92
2022/01/20 06:55:18;;;;;;;5.20;1.53;;;;;;;4.56;66.33;101699.13;4943795;28;97067;-91
2022/01/20 06:57:45;;;;;;;4.60;1.73;;;;;;;4.51;66.74;101678.59;4938195;28;96944;-91
2022/01/20 07:00:15;;;;;;;7.53;2.20;;;;;;;4.49;66.68;101691.88;4939298;28;98901;-92
2022/01/20 07:02:43;;;;;;;6.30;2.00;;;;;;;4.47;66.73;101686.09;4927674;28;97377;-91
2022/01/20 07:05:12;;;;;;;8.23;2.73;;;;;;;4.37;66.75;101694.50;4923326;28;96768;-90
2022/01/20 07:07:39;;;;;;;7.57;3.50;;;;;;;4.32;66.79;101703.97;4945244;28;96593;-92
2022/01/20 07:10:06;;;;;;;15.90;3.90;;;;;;;4.28;66.77;101727.78;4928350;28;96936;-91
2022/01/20 07:12:32;;;;;;;11.27;3.00;;;;;;;4.35;66.75;101713.22;4940839;28;99871;-93
2022/01/20 07:14:58;;;;;;;8.83;3.00;;;;;;;4.31;66.57;101731.59;4930153;28;96609;-90
2022/01/20 07:17:24;;;;;;;7.57;1.83;;;;;;;4.25;66.51;101747.69;4943995;28;96868;-91
2022/01/20 07:19:50;;;;;;;16.53;3.10;;;;;;;4.27;66.64;101745.31;4942418;28;97315;-91
2022/01/20 07:22:17;;;;;;;7.07;2.37;;;;;;;4.27;66.56;101742.59;4927836;28;98410;-92
2022/01/20 07:24:42;;;;;;;2.97;1.83;;;;;;;4.24;66.74;101734.47;4928559;28;97516;-91
2022/01/20 07:27:08;;;;;;;3.70;1.90;;;;;;;4.25;66.74;101758.59;4926836;28;96922;-91
2022/01/20 07:29:34;;;;;;;10.40;2.97;;;;;;;4.20;66.39;101734.56;4934226;28;99255;-91
2022/01/20 07:32:03;;;;;;;8.87;3.43;;;;;;;4.21;66.56;101751.69;4927958;28;98299;-91
2022/01/20 07:34:31;;;;;;;5.67;2.13;;;;;;;4.20;66.77;101745.47;4942681;28;97126;-92
2022/01/20 07:36:57;;;;;;;4.47;1.70;;;;;;;4.20;66.66;101745.47;4926589;28;97348;-90
2022/01/20 07:39:23;;;;;;;7.70;2.03;;;;;;;4.23;66.70;101747.34;4941987;28;96915;-91
2022/01/20 07:41:50;;;;;;;16.83;2.80;;;;;;;4.21;66.76;101747.00;4942611;28;96729;-89
2022/01/20 07:44:17;;;;;;;11.43;2.50;;;;;;;4.19;66.77;101749.38;4939101;28;97350;-91
2022/01/20 07:46:44;;;;;;;7.17;1.73;;;;;;;4.13;66.48;101756.50;4940623;28;101813;-90
2022/01/20 07:49:10;;;;;;;12.87;2.27;;;;;;;4.23;66.69;101766.41;4927016;28;97871;-88
2022/01/20 07:51:36;;;;;;;10.70;3.00;;;;;;;4.26;66.93;101762.84;4930483;28;97098;-90
2022/01/20 07:54:02;;;;;;;6.00;2.80;;;;;;;4.24;66.64;101778.06;4941631;28;97281;-88
2022/01/20 07:56:28;;;;;;;6.17;2.57;;;;;;;4.27;66.84;101788.13;4927296;28;96846;-91
2022/01/20 07:58:54;;;;;;;14.20;3.40;;;;;;;4.26;66.71;101781.16;4937997;28;98278;-90
2022/01/20 08:01:24;;;;;;;8.17;2.30;;;;;;;4.27;66.48;101797.06;4936858;28;97561;-90
2022/01/20 08:03:52;;;;;;;5.80;2.07;;;;;;;4.25;66.64;101788.56;4938312;28;96958;-89
2022/01/20 08:06:22;;;;;;;5.10;1.63;;;;;;;4.27;66.83;101788.13;4930406;28;97202;-90
2022/01/20 08:08:50;;;;;;;5.67;1.53;;;;;;;4.22;66.80;101769.53;4926592;28;101539;-90
2022/01/20 08:11:17;;;;;;;7.93;1.97;;;;;;;4.26;66.80;101776.44;4939780;28;97340;-89
2022/01/20 08:13:44;;;;;;;3.63;1.80;;;;;;;4.27;66.82;101786.19;4923974;28;97041;-91
2022/01/20 08:16:10;;;;;;;2.23;2.03;;;;;;;4.38;66.86;101796.84;4923783;28;96980;-91
2022/01/20 08:18:36;;;;;;;7.80;2.67;;;;;;;4.50;66.89;101791.50;4919001;28;97024;-91
2022/01/20 08:21:03;;;;;;;4.10;2.20;;;;;;;4.60;66.71;101780.78;4940618;28;97674;-91
2022/01/20 08:23:29;;;;;;;5.97;2.00;;;;;;;4.60;66.36;101803.38;4933495;28;96885;-89
2022/01/20 08:25:55;;;;;;;5.07;1.70;;;;;;;4.59;66.51;101792.91;4920419;28;96810;-90
2022/01/20 08:28:22;;;;;;;5.17;1.70;;;;;;;4.57;66.17;101780.44;4925399;28;97977;-90
2022/01/20 08:30:50;;;;;;;12.13;1.87;;;;;;;4.51;66.29;101782.16;4943804;28;99380;-88
2022/01/20 08:33:17;;;;;;;2.60;1.30;;;;;;;4.53;66.42;101790.66;4939529;28;96972;-90
2022/01/20 08:35:45;;;;;;;5.97;1.50;;;;;;;4.51;66.35;101784.88;4926780;28;96772;-90
2022/01/20 08:38:12;;;;;;;3.73;1.07;;;;;;;4.48;66.26;101788.44;4939954;28;97254;-89
2022/01/20 08:40:38;;;;;;;7.43;1.30;;;;;;;4.54;66.47;101786.00;4941127;28;99183;-88
2022/01/20 08:43:06;;;;;;;4.83;1.90;;;;;;;4.53;66.63;101768.88;4920719;28;96755;-90
2022/01/20 08:45:36;;;;;;;2.87;1.30;;;;;;;4.65;66.52;101780.31;4918998;28;96921;-87
2022/01/20 08:48:03;;;;;;;7.73;1.10;;;;;;;4.68;66.27;101782.94;4920180;28;97007;-91
2022/01/20 08:50:31;;;;;;;12.50;1.63;;;;;;;4.69;66.20;101780.97;4941660;28;97793;-89
2022/01/20 08:52:59;;;;;;;8.57;1.27;;;;;;;4.68;66.08;101779.44;4942861;28;97832;-87
2022/01/20 08:55:29;;;;;;;5.17;1.03;;;;;;;4.65;66.03;101785.75;4926400;28;97512;-89
2022/01/20 08:57:57;;;;;;;5.70;1.20;;;;;;;4.61;66.56;101793.25;4918823;28;99984;-91
2022/01/20 09:00:27;;;;;;;10.60;1.67;;;;;;;4.68;66.32;101809.41;4936305;28;97784;-89
2022/01/20 09:02:55;;;;;;;7.70;1.10;;;;;;;4.71;66.39;101827.66;4919011;28;97055;-90
2022/01/20 09:05:22;;;;;;;7.60;1.30;;;;;;;4.83;66.39;101813.34;4940838;28;97283;-91
2022/01/20 09:07:49;;;;;;;2.97;0.70;;;;;;;4.88;66.48;101834.69;4926157;28;96999;-89
2022/01/20 09:10:21;;;;;;;2.87;0.80;;;;;;;5.00;66.13;101802.03;4936957;28;98564;-91
2022/01/20 09:15:35;;;;;;;6.53;1.33;;;;;;;5.07;65.97;101806.56;4924711;28;96841;-89
2022/01/20 09:18:05;;;;;;;4.03;1.23;;;;;;;5.08;65.64;101817.06;4927150;28;97023;-88
2022/01/20 09:20:34;;;;;;;3.80;1.30;;;;;;;5.10;65.86;101846.63;4939365;28;97127;-90
2022/01/20 09:23:01;;;;;;;5.17;1.10;;;;;;;5.02;65.97;101839.81;4922497;28;97081;-91
2022/01/20 09:25:29;;;;;;;4.20;1.20;;;;;;;4.99;66.24;101824.28;4923259;28;96868;-90
2022/01/20 09:27:56;;;;;;;4.50;1.80;;;;;;;4.95;65.91;101845.44;4925208;28;103284;-90
2022/01/20 09:30:25;;;;;;;11.77;1.70;;;;;;;4.97;66.34;101840.31;4922814;28;99378;-90
2022/01/20 09:33:01;;;;;;;4.67;1.27;;;;;;;4.98;66.39;101828.22;4923502;28;97432;-89
2022/01/20 09:35:31;;;;;;;3.80;1.80;;;;;;;4.91;65.97;101837.34;4932620;28;96744;-90
2022/01/20 09:38:00;;;;;;;2.10;1.20;;;;;;;4.89;66.09;101815.16;4937568;28;97467;-90
2022/01/20 09:40:32;;;;;;;4.37;1.10;;;;;;;4.81;66.21;101853.91;4934827;28;97379;-89
2022/01/20 09:43:00;;;;;;;3.57;2.00;;;;;;;4.79;66.15;101864.47;4920792;28;97133;-90
2022/01/20 09:45:28;;;;;;;6.50;1.60;;;;;;;4.71;66.42;101860.38;4937799;28;96879;-87
2022/01/20 09:47:55;;;;;;;7.37;1.70;;;;;;;4.74;66.29;101881.34;4939771;28;98324;-91
2022/01/20 09:50:24;;;;;;;4.20;1.53;;;;;;;4.76;66.53;101868.06;4922512;28;97382;-91
2022/01/20 09:52:55;;;;;;;7.30;1.30;;;;;;;4.84;66.38;101850.34;4941535;28;98124;-88
2022/01/20 09:55:22;;;;;;;3.37;1.30;;;;;;;4.91;66.59;101842.78;4915673;28;97853;-88
2022/01/20 09:57:49;;;;;;;11.53;3.40;;;;;;;5.03;66.59;101858.47;4905803;28;97075;-89
2022/01/20 10:00:18;;;;;;;6.20;3.63;;;;;;;5.11;66.20;101864.53;4905166;28;97036;-91
2022/01/20 10:03:10;;;;;;;5.90;3.07;;;;;;;5.11;66.19;101859.09;4915611;28;97443;-90
2022/01/20 10:05:52;;;;;;;4.83;2.47;;;;;;;5.10;66.19;101855.59;4903586;28;97882;-89
2022/01/20 10:08:28;;;;;;;12.23;2.70;;;;;;;5.12;66.22;101863.34;4904955;28;98964;-88
2022/01/20 10:11:10;;;;;;;3.13;1.90;;;;;;;5.12;66.48;101860.63;4914702;28;97733;-90
2022/01/20 10:13:42;;;;;;;8.10;2.00;;;;;;;5.20;66.24;101859.25;4945859;28;99325;-89
2022/01/20 10:16:16;;;;;;;6.30;2.00;;;;;;;5.25;66.44;101862.25;4905076;28;96970;-90
2022/01/20 10:18:49;;;;;;;4.63;1.17;;;;;;;5.29;66.23;101864.88;4926368;28;103009;-90
2022/01/20 10:21:18;;;;;;;10.27;2.03;;;;;;;5.28;66.42;101880.50;4904286;28;101963;-90
2022/01/20 10:23:49;;;;;;;4.40;1.07;;;;;;;5.31;66.42;101849.63;4902871;28;97042;-89
2022/01/20 10:26:24;;;;;;;2.30;1.33;;;;;;;5.32;66.34;101858.59;4911023;28;99821;-87
2022/01/20 10:29:00;;;;;;;4.50;1.40;;;;;;;5.28;66.26;101861.41;4913249;28;102410;-88
2022/01/20 10:31:34;;;;;;;5.57;1.40;;;;;;;5.24;66.18;101866.16;4910642;28;102709;-90
2022/01/20 10:34:02;;;;;;;5.50;1.60;;;;;;;5.19;66.37;101868.63;4929376;28;96811;-92
2022/01/20 10:36:30;;;;;;;8.77;1.23;;;;;;;5.17;66.17;101874.53;4917410;28;98909;-89
2022/01/20 10:38:59;;;;;;;6.33;1.57;;;;;;;5.13;66.14;101865.63;4910775;28;97940;-90
2022/01/20 10:41:39;;;;;;;2.47;1.20;;;;;;;5.14;66.22;101871.88;4925288;28;96739;-91
2022/01/20 10:44:08;;;;;;;3.33;1.10;;;;;;;5.11;66.32;101873.47;4877867;28;97861;-91
2022/01/20 10:46:54;;;;;;;8.57;1.43;;;;;;;5.19;66.70;101885.78;4914262;28;96845;-89
2022/01/20 10:49:28;;;;;;;11.53;1.93;;;;;;;5.31;66.54;101895.22;4908084;28;103886;-87
2022/01/20 10:52:07;;;;;;;6.53;2.80;;;;;;;5.43;66.50;101878.19;4901383;28;98427;-90
2022/01/20 10:54:42;;;;;;;6.47;2.40;;;;;;;5.47;66.11;101884.34;4900152;28;97325;-90
2022/01/20 10:57:11;;;;;;;2.17;1.73;;;;;;;5.49;66.07;101881.94;4896695;28;97108;-89
2022/01/20 10:59:53;;;;;;;7.87;1.77;;;;;;;5.52;66.33;101881.09;4900519;28;97494;-89
2022/01/20 11:02:26;;;;;;;10.33;2.20;;;;;;;5.60;66.03;101887.13;4902939;28;101847;-88
2022/01/20 11:04:54;;;;;;;2.87;1.30;;;;;;;5.62;66.42;101871.09;4924110;28;96923;-88
2022/01/20 11:07:21;;;;;;;7.53;1.40;;;;;;;5.69;65.99;101879.88;4913458;28;96958;-91
2022/01/20 11:10:04;;;;;;;5.77;1.43;;;;;;;5.70;66.11;101880.66;4916761;28;98535;-89
2022/01/20 11:12:34;;;;;;;6.80;2.30;;;;;;;5.76;66.13;101863.34;4916382;28;101600;-87
2022/01/20 11:15:05;;;;;;;5.33;1.63;;;;;;;5.79;66.21;101870.66;4934917;28;96845;-90
2022/01/20 11:17:35;;;;;;;4.43;1.40;;;;;;;5.80;65.94;101860.50;4930801;28;99144;-90
2022/01/20 11:20:16;;;;;;;4.27;1.10;;;;;;;5.82;65.62;101856.16;4910722;28;100100;-89
2022/01/20 11:23:05;;;;;;;10.00;1.20;;;;;;;5.80;65.84;101852.31;4925472;28;101930;-89
2022/01/20 11:25:35;;;;;;;4.93;1.47;;;;;;;5.71;65.88;101846.69;4902847;28;97591;-90
2022/01/20 11:28:16;;;;;;;5.40;1.33;;;;;;;5.64;65.68;101855.81;4904456;28;96810;-89
2022/01/20 11:31:05;;;;;;;2.50;1.10;;;;;;;5.58;65.63;101857.56;4922546;28;100685;-88
2022/01/20 11:33:40;;;;;;;4.53;1.67;;;;;;;5.49;65.48;101862.06;4914847;28;100627;-89
2022/01/20 11:36:21;;;;;;;4.60;1.57;;;;;;;5.34;65.81;101861.66;4907539;28;96705;-91
2022/01/20 11:38:50;;;;;;;4.83;0.80;;;;;;;5.22;65.80;101873.25;4923290;28;96909;-88
2022/01/20 11:41:21;;;;;;;1.80;0.97;;;;;;;5.13;66.17;101857.44;4914278;28;97669;-89
2022/01/20 11:43:52;;;;;;;2.53;0.80;;;;;;;5.09;66.45;101875.88;4910106;28;97719;-91
2022/01/20 11:46:38;;;;;;;3.13;1.10;;;;;;;5.07;66.39;101847.47;4905263;28;97337;-89
2022/01/20 11:49:09;;;;;;;1.93;0.73;;;;;;;5.16;66.51;101853.88;4926639;28;97060;-90
2022/01/20 11:51:58;;;;;;;3.83;1.20;;;;;;;5.26;66.54;101852.13;4943984;28;101100;-89
2022/01/20 11:54:29;;;;;;;2.23;0.90;;;;;;;5.33;66.11;101843.72;4941868;28;102158;-91
2022/01/20 11:57:19;;;;;;;2.67;0.70;;;;;;;5.43;66.47;101855.59;4939154;28;97318;-90
2022/01/20 11:59:54;;;;;;;4.00;0.90;;;;;;;5.38;66.18;101865.06;4928303;28;97043;-89
2022/01/20 12:02:33;;;;;;;5.70;0.80;;;;;;;5.51;66.76;101860.44;4928990;28;96777;-91
2022/01/20 12:05:03;;;;;;;3.20;1.00;;;;;;;5.62;66.30;101860.19;4941289;28;98592;-92
2022/01/20 12:07:32;;;;;;;2.40;1.00;;;;;;;5.72;66.22;101865.38;4923400;28;97036;-89
2022/01/20 12:10:21;;;;;;;5.83;1.10;;;;;;;5.63;65.77;101864.47;4923278;28;97236;-89
2022/01/20 12:12:49;;;;;;;2.23;1.00;;;;;;;5.52;65.91;101856.53;4922028;28;97369;-90
2022/01/20 12:15:22;;;;;;;5.00;1.17;;;;;;;5.48;66.24;101844.94;4936782;28;97248;-88
2022/01/20 12:17:51;;;;;;;7.20;1.60;;;;;;;5.39;65.88;101850.22;4926081;28;96677;-89
2022/01/20 12:20:23;;;;;;;5.77;0.93;;;;;;;5.36;66.20;101867.44;4925717;28;96951;-90
2022/01/20 12:22:52;;;;;;;4.50;1.20;;;;;;;5.32;66.31;101844.94;4924222;28;97053;-89
2022/01/20 12:25:26;;;;;;;3.53;1.17;;;;;;;5.18;66.16;101832.41;4927727;28;97429;-88
2022/01/20 12:28:06;;;;;;;6.20;1.17;;;;;;;5.10;66.49;101844.69;4927827;28;96843;-89
2022/01/20 12:30:34;;;;;;;2.70;1.17;;;;;;;5.04;66.48;101835.47;4946288;28;97293;-89
2022/01/20 12:33:07;;;;;;;7.17;1.00;;;;;;;5.14;66.87;101839.91;4917041;28;97794;-90
2022/01/20 12:35:41;;;;;;;6.07;1.33;;;;;;;5.25;66.48;101836.91;4924929;28;96694;-88
2022/01/20 12:38:25;;;;;;;4.43;1.33;;;;;;;5.33;67.01;101825.41;4921560;28;97241;-89
2022/01/20 12:41:12;;;;;;;3.07;1.20;;;;;;;5.37;66.70;101830.78;4925970;28;97508;-91